Time;durP1;ratioP1;P1;durP2;ratioP2;P2;SDS_P1;SDS_P2;PMS_P1;PMS_P2;Temp;Humidity;BMP_temperature;BMP_pressure;BME280_temperature;BME280_humidity;BME280_pressure;Samples;Min_cycle;Max_cycle;Signal;HPM_P1;HPM_P2
2022/04/26 03:36:11;;;;;;;;;33.50;30.25;;;;;;;;5078162;27;45664;-60
2022/04/26 03:38:38;;;;;;;;;29.75;27.50;;;;;;;;5065511;27;46027;-61
2022/04/26 03:41:03;;;;;;;;;31.00;27.25;;;;;;;;5084627;27;45430;-60
2022/04/26 03:43:29;;;;;;;;;29.00;26.75;;;;;;;;5084904;27;45379;-61
2022/04/26 03:45:54;;;;;;;;;27.00;27.00;;;;;;;;5084293;27;45499;-60
2022/04/26 03:48:20;;;;;;;;;24.00;22.00;;;;;;;;5079939;27;47635;-60
2022/04/26 03:50:45;;;;;;;;;28.25;27.75;;;;;;;;5063990;28;46313;-61
2022/04/26 03:53:10;;;;;;;;;27.50;24.25;;;;;;;;5084745;27;45333;-61
2022/04/26 03:55:36;;;;;;;;;30.00;28.75;;;;;;;;5084798;27;45360;-61
2022/04/26 03:58:01;;;;;;;;;26.75;25.75;;;;;;;;5084393;27;46757;-61
2022/04/26 04:00:26;;;;;;;;;33.00;31.25;;;;;;;;5079953;27;45407;-59
2022/04/26 04:02:52;;;;;;;;;32.50;32.25;;;;;;;;5081318;27;45391;-60
2022/04/26 04:05:17;;;;;;;;;33.50;29.25;;;;;;;;5084500;27;45623;-60
2022/04/26 04:07:43;;;;;;;;;32.00;29.75;;;;;;;;5084013;27;46997;-60
2022/04/26 04:10:08;;;;;;;;;28.75;28.75;;;;;;;;5083722;27;45456;-60
2022/04/26 04:12:33;;;;;;;;;29.25;28.00;;;;;;;;5080698;27;45545;-60
2022/04/26 04:14:58;;;;;;;;;30.50;30.50;;;;;;;;5096597;27;45367;-60
2022/04/26 04:17:23;;;;;;;;;31.00;30.25;;;;;;;;5083938;27;46984;-60
2022/04/26 04:19:49;;;;;;;;;34.75;30.75;;;;;;;;5084168;27;45412;-61
2022/04/26 04:22:14;;;;;;;;;34.75;29.75;;;;;;;;5083747;27;45381;-61
2022/04/26 04:24:39;;;;;;;;;37.00;35.00;;;;;;;;5081167;27;45386;-61
2022/04/26 04:27:05;;;;;;;;;35.00;29.50;;;;;;;;5079337;27;46305;-60
2022/04/26 04:29:30;;;;;;;;;34.75;31.00;;;;;;;;5083347;27;45390;-60
2022/04/26 04:31:55;;;;;;;;;33.25;31.00;;;;;;;;5083703;27;45278;-61
2022/04/26 04:34:20;;;;;;;;;36.75;31.50;;;;;;;;5084323;27;45599;-61
2022/04/26 04:36:45;;;;;;;;;32.50;29.50;;;;;;;;5082239;27;45533;-60
2022/04/26 04:39:13;;;;;;;;;29.75;29.75;;;;;;;;5079137;27;45574;-60
2022/04/26 04:41:38;;;;;;;;;29.00;27.75;;;;;;;;5082341;27;45396;-61
2022/04/26 04:44:04;;;;;;;;;34.50;32.00;;;;;;;;5083855;27;45523;-60
2022/04/26 04:46:29;;;;;;;;;38.50;35.25;;;;;;;;5083648;27;45868;-61
2022/04/26 04:48:54;;;;;;;;;31.00;28.25;;;;;;;;5064464;27;45400;-61
2022/04/26 04:51:19;;;;;;;;;39.75;35.00;;;;;;;;5078974;27;45471;-61
2022/04/26 04:53:45;;;;;;;;;32.75;30.00;;;;;;;;5096200;27;45375;-61
2022/04/26 04:56:10;;;;;;;;;39.75;35.00;;;;;;;;5084904;27;45328;-61
2022/04/26 04:58:36;;;;;;;;;32.25;32.00;;;;;;;;5066742;27;45652;-61
2022/04/26 05:01:01;;;;;;;;;31.75;31.00;;;;;;;;5094881;27;45486;-60
2022/04/26 05:03:26;;;;;;;;;35.25;32.00;;;;;;;;5079300;27;45423;-60
2022/04/26 05:05:51;;;;;;;;;41.00;36.00;;;;;;;;5091410;27;45349;-60
2022/04/26 05:08:17;;;;;;;;;35.00;33.25;;;;;;;;5083911;27;45486;-60
2022/04/26 05:10:42;;;;;;;;;38.75;36.00;;;;;;;;5083242;27;45405;-60
2022/04/26 05:13:08;;;;;;;;;35.00;33.25;;;;;;;;5083369;27;45417;-60
2022/04/26 05:15:34;;;;;;;;;33.50;28.25;;;;;;;;5079847;27;45856;-61
2022/04/26 05:17:59;;;;;;;;;41.75;34.00;;;;;;;;5078644;27;45457;-61
2022/04/26 05:20:24;;;;;;;;;43.00;36.25;;;;;;;;5065323;28;45546;-60
2022/04/26 05:25:34;;;;;;;;;33.25;31.75;;;;;;;;5094630;27;45651;-60
2022/04/26 05:28:00;;;;;;;;;34.75;31.75;;;;;;;;5094471;27;45480;-60
2022/04/26 05:30:25;;;;;;;;;39.50;35.75;;;;;;;;5076643;27;47215;-60
2022/04/26 05:32:51;;;;;;;;;42.25;36.00;;;;;;;;5095292;27;45226;-61
2022/04/26 05:35:16;;;;;;;;;40.50;36.25;;;;;;;;5083480;27;46701;-60
2022/04/26 05:37:41;;;;;;;;;41.50;35.50;;;;;;;;5082952;27;45411;-60
2022/04/26 05:40:07;;;;;;;;;40.50;35.00;;;;;;;;5083095;27;45498;-60
2022/04/26 05:42:35;;;;;;;;;32.25;32.25;;;;;;;;5079513;27;45420;-60
2022/04/26 05:45:00;;;;;;;;;43.25;38.25;;;;;;;;5077592;27;45941;-60
2022/04/26 05:47:26;;;;;;;;;49.50;38.50;;;;;;;;5082516;27;45630;-59
2022/04/26 05:49:52;;;;;;;;;46.50;39.75;;;;;;;;5082982;27;45354;-60
2022/04/26 05:52:17;;;;;;;;;45.50;38.25;;;;;;;;5062386;28;45294;-61
2022/04/26 05:54:43;;;;;;;;;45.75;38.75;;;;;;;;5057799;28;47520;-61
2022/04/26 05:57:08;;;;;;;;;44.75;34.75;;;;;;;;5075702;27;45747;-60
2022/04/26 05:59:34;;;;;;;;;45.75;37.75;;;;;;;;5094356;27;45423;-60
2022/04/26 06:02:00;;;;;;;;;49.50;40.25;;;;;;;;5085383;27;45327;-59
2022/04/26 06:04:25;;;;;;;;;47.75;39.75;;;;;;;;5082495;27;46639;-60
2022/04/26 06:06:50;;;;;;;;;45.00;35.75;;;;;;;;5081334;27;45558;-60
2022/04/26 06:09:16;;;;;;;;;53.50;42.00;;;;;;;;5059540;27;45494;-60
2022/04/26 06:11:41;;;;;;;;;42.00;37.75;;;;;;;;5095164;27;45503;-60
2022/04/26 06:14:06;;;;;;;;;45.00;37.75;;;;;;;;5084500;27;46415;-60
2022/04/26 06:16:32;;;;;;;;;47.75;41.00;;;;;;;;5082529;27;45475;-60
2022/04/26 06:18:57;;;;;;;;;45.00;38.00;;;;;;;;5082280;27;46000;-60
2022/04/26 06:21:22;;;;;;;;;49.25;39.75;;;;;;;;5077686;27;45451;-62
2022/04/26 06:23:48;;;;;;;;;51.25;41.50;;;;;;;;5079339;27;46721;-62
2022/04/26 06:26:13;;;;;;;;;47.75;39.75;;;;;;;;5082447;27;45486;-62
2022/04/26 06:28:38;;;;;;;;;51.00;42.00;;;;;;;;5082542;27;45455;-62
2022/04/26 06:31:03;;;;;;;;;50.25;42.00;;;;;;;;5082209;27;45238;-63
2022/04/26 06:33:28;;;;;;;;;57.25;45.75;;;;;;;;5057357;27;46487;-64
2022/04/26 06:35:54;;;;;;;;;55.75;46.25;;;;;;;;5060207;28;45350;-63
2022/04/26 06:38:22;;;;;;;;;58.50;46.50;;;;;;;;5082419;27;45522;-62
2022/04/26 06:40:47;;;;;;;;;55.00;45.00;;;;;;;;5082312;27;45431;-62
2022/04/26 06:43:12;;;;;;;;;51.75;44.00;;;;;;;;5062037;28;48488;-62
2022/04/26 06:45:38;;;;;;;;;55.25;45.00;;;;;;;;5056377;28;45435;-62
2022/04/26 06:48:07;;;;;;;;;58.00;47.00;;;;;;;;5074498;27;45439;-62
2022/04/26 06:50:32;;;;;;;;;53.75;44.50;;;;;;;;5081231;27;45551;-62
2022/04/26 06:52:57;;;;;;;;;53.00;41.75;;;;;;;;5062260;28;47398;-62
2022/04/26 06:55:22;;;;;;;;;44.50;36.50;;;;;;;;5083213;27;45321;-62
2022/04/26 06:57:48;;;;;;;;;55.25;44.25;;;;;;;;5064383;27;45489;-62
2022/04/26 07:00:13;;;;;;;;;54.25;46.00;;;;;;;;5080734;27;45329;-62
2022/04/26 07:02:38;;;;;;;;;62.00;51.25;;;;;;;;5083645;27;46402;-62
2022/04/26 07:05:04;;;;;;;;;61.00;49.00;;;;;;;;5067159;28;45539;-62
2022/04/26 07:07:29;;;;;;;;;61.50;51.00;;;;;;;;5085497;27;45553;-62
2022/04/26 07:09:54;;;;;;;;;59.25;49.00;;;;;;;;5084945;27;45538;-61
2022/04/26 07:12:20;;;;;;;;;60.25;48.75;;;;;;;;5080536;27;46310;-62
2022/04/26 07:14:45;;;;;;;;;62.50;49.50;;;;;;;;5082702;27;45385;-62
2022/04/26 07:17:10;;;;;;;;;59.75;47.75;;;;;;;;5085285;27;45461;-62
2022/04/26 07:19:36;;;;;;;;;65.25;49.00;;;;;;;;5085250;27;45502;-62
2022/04/26 07:22:03;;;;;;;;;66.75;52.25;;;;;;;;5063710;28;48251;-62
2022/04/26 07:24:28;;;;;;;;;60.75;49.00;;;;;;;;5080964;27;45418;-62
2022/04/26 07:26:55;;;;;;;;;59.75;47.00;;;;;;;;5081487;27;45431;-62
2022/04/26 07:29:20;;;;;;;;;61.50;50.50;;;;;;;;5096528;27;45311;-62
2022/04/26 07:31:46;;;;;;;;;66.75;53.50;;;;;;;;5090028;27;45605;-62
2022/04/26 07:34:24;;;;;;;;;61.00;48.75;;;;;;;;5085002;27;45504;-62
2022/04/26 07:36:53;;;;;;;;;64.75;50.75;;;;;;;;5083869;27;45459;-62
2022/04/26 07:39:19;;;;;;;;;63.25;50.25;;;;;;;;5080235;27;45577;-62
2022/04/26 07:41:48;;;;;;;;;62.75;49.00;;;;;;;;5064094;28;47440;-63
2022/04/26 07:44:13;;;;;;;;;59.50;48.00;;;;;;;;5066588;28;45448;-62
2022/04/26 07:46:39;;;;;;;;;62.50;48.00;;;;;;;;5066406;28;45527;-62
2022/04/26 07:49:05;;;;;;;;;59.50;48.75;;;;;;;;5084858;27;45357;-62
2022/04/26 07:51:31;;;;;;;;;64.75;50.75;;;;;;;;5080810;27;46483;-61
2022/04/26 07:53:56;;;;;;;;;59.50;47.00;;;;;;;;5080243;27;45412;-62
2022/04/26 07:56:21;;;;;;;;;56.00;45.00;;;;;;;;5085009;27;45362;-62
2022/04/26 07:58:46;;;;;;;;;58.00;46.75;;;;;;;;5084536;27;45423;-62
2022/04/26 08:01:11;;;;;;;;;57.50;46.50;;;;;;;;5084291;27;47242;-63
2022/04/26 08:03:37;;;;;;;;;59.25;48.25;;;;;;;;5081257;27;45489;-62
2022/04/26 08:06:02;;;;;;;;;59.75;48.50;;;;;;;;5079354;27;45363;-63
2022/04/26 08:08:27;;;;;;;;;53.75;44.00;;;;;;;;5095985;27;45509;-63
2022/04/26 08:10:52;;;;;;;;;57.00;45.50;;;;;;;;5088086;27;46525;-63
2022/04/26 08:13:17;;;;;;;;;52.50;42.00;;;;;;;;5083986;27;45436;-62
2022/04/26 08:15:43;;;;;;;;;59.50;47.75;;;;;;;;5082115;27;45429;-63
2022/04/26 08:18:10;;;;;;;;;58.50;44.75;;;;;;;;5061119;27;45596;-63
2022/04/26 08:20:37;;;;;;;;;59.25;47.25;;;;;;;;5082680;27;46364;-62
2022/04/26 08:23:02;;;;;;;;;56.00;44.25;;;;;;;;5083896;27;45495;-63
2022/04/26 08:28:11;;;;;;;;;59.75;46.50;;;;;;;;5083867;27;45405;-62
2022/04/26 08:30:37;;;;;;;;;53.00;43.50;;;;;;;;5080641;27;46409;-63
2022/04/26 08:33:02;;;;;;;;;57.00;45.00;;;;;;;;5061083;27;45409;-63
2022/04/26 08:35:27;;;;;;;;;56.25;47.00;;;;;;;;5083328;27;45261;-63
2022/04/26 08:37:53;;;;;;;;;54.75;44.50;;;;;;;;5083908;27;45550;-63
2022/04/26 08:40:19;;;;;;;;;53.75;45.25;;;;;;;;5086349;27;45621;-62
2022/04/26 08:42:44;;;;;;;;;54.75;45.50;;;;;;;;5095419;27;45432;-62
2022/04/26 08:45:11;;;;;;;;;48.75;41.00;;;;;;;;5079128;27;45373;-62
2022/04/26 08:53:05;;;;;;;;;52.75;43.50;;;;;;;;5083397;27;45645;-62
2022/04/26 08:55:31;;;;;;;;;52.25;41.50;;;;;;;;5083461;27;45517;-62
2022/04/26 08:57:56;;;;;;;;;49.00;42.25;;;;;;;;5083150;27;49286;-60
2022/04/26 09:00:22;;;;;;;;;59.00;46.50;;;;;;;;5078464;27;46493;-61
2022/04/26 09:02:58;;;;;;;;;51.25;42.50;;;;;;;;5062444;28;45476;-61
2022/04/26 09:05:24;;;;;;;;;51.25;40.75;;;;;;;;5059801;27;45615;-62
2022/04/26 09:07:49;;;;;;;;;52.25;43.75;;;;;;;;5088068;27;45330;-62
2022/04/26 09:10:16;;;;;;;;;55.75;45.00;;;;;;;;5083448;27;46261;-62
2022/04/26 09:13:04;;;;;;;;;53.00;44.00;;;;;;;;5061286;27;45584;-62
2022/04/26 09:16:08;;;;;;;;;48.50;39.75;;;;;;;;5094801;27;45266;-63
2022/04/26 09:18:33;;;;;;;;;59.50;47.50;;;;;;;;5017086;28;45503;-63
2022/04/26 09:21:05;;;;;;;;;52.50;43.50;;;;;;;;5016072;28;45640;-62
2022/04/26 09:23:32;;;;;;;;;54.00;44.25;;;;;;;;5019627;28;45762;-63
2022/04/26 09:26:09;;;;;;;;;56.50;46.00;;;;;;;;5028281;28;45519;-62
2022/04/26 09:28:38;;;;;;;;;59.75;47.50;;;;;;;;5026942;28;45394;-63
2022/04/26 09:31:24;;;;;;;;;56.00;45.00;;;;;;;;5020403;28;45830;-62
2022/04/26 09:33:51;;;;;;;;;51.00;42.25;;;;;;;;5018480;28;45498;-63
2022/04/26 09:36:20;;;;;;;;;58.50;47.50;;;;;;;;5015238;28;45524;-62
2022/04/26 09:38:53;;;;;;;;;57.00;46.50;;;;;;;;5017894;28;45530;-62
2022/04/26 09:41:18;;;;;;;;;60.75;47.75;;;;;;;;5020023;28;45719;-62
2022/04/26 09:43:54;;;;;;;;;59.25;47.25;;;;;;;;5020308;28;45462;-62
2022/04/26 09:46:19;;;;;;;;;56.00;46.50;;;;;;;;5020414;28;45564;-62
2022/04/26 09:48:45;;;;;;;;;56.25;46.75;;;;;;;;5034279;27;45427;-62
2022/04/26 09:51:10;;;;;;;;;51.50;41.50;;;;;;;;5094280;27;47445;-62
2022/04/26 09:53:35;;;;;;;;;58.50;46.25;;;;;;;;5063167;28;45345;-62
2022/04/26 09:56:02;;;;;;;;;54.25;45.25;;;;;;;;5082796;27;45427;-62
2022/04/26 09:58:28;;;;;;;;;58.50;46.00;;;;;;;;5064283;28;45487;-62
2022/04/26 10:00:55;;;;;;;;;57.50;46.00;;;;;;;;5081443;27;46232;-62
2022/04/26 10:03:23;;;;;;;;;49.25;39.75;;;;;;;;5077759;27;45512;-62
2022/04/26 10:05:49;;;;;;;;;54.00;43.25;;;;;;;;5073216;28;45437;-62
2022/04/26 10:08:16;;;;;;;;;56.75;46.25;;;;;;;;5082313;27;45444;-62
2022/04/26 10:10:43;;;;;;;;;53.75;44.25;;;;;;;;5082357;27;47389;-62
2022/04/26 10:15:52;;;;;;;;;52.25;42.75;;;;;;;;5081417;27;45377;-62
2022/04/26 10:18:31;;;;;;;;;57.75;47.25;;;;;;;;5077530;27;45601;-62
2022/04/26 10:20:57;;;;;;;;;59.25;46.00;;;;;;;;5090509;27;46352;-63
2022/04/26 10:23:22;;;;;;;;;56.00;45.00;;;;;;;;5082274;27;45613;-62
2022/04/26 10:26:06;;;;;;;;;51.00;41.00;;;;;;;;5081826;27;45635;-62
2022/04/26 10:28:32;;;;;;;;;56.00;45.00;;;;;;;;5082001;27;45391;-62
2022/04/26 10:30:58;;;;;;;;;54.50;44.50;;;;;;;;5084413;27;46497;-62
2022/04/26 10:33:40;;;;;;;;;56.00;44.00;;;;;;;;5081189;27;45534;-62
2022/04/26 10:36:17;;;;;;;;;52.00;43.25;;;;;;;;5094992;27;45499;-61
2022/04/26 10:39:02;;;;;;;;;50.50;42.75;;;;;;;;5082022;27;45310;-61
2022/04/26 10:41:33;;;;;;;;;55.00;44.25;;;;;;;;5084818;27;45986;-62
2022/04/26 10:44:15;;;;;;;;;52.25;41.50;;;;;;;;5093839;27;45521;-62
2022/04/26 10:46:41;;;;;;;;;53.00;43.25;;;;;;;;5072992;28;45674;-62
2022/04/26 10:49:24;;;;;;;;;45.75;38.00;;;;;;;;5085339;27;45491;-62
2022/04/26 10:51:53;;;;;;;;;48.50;41.75;;;;;;;;5065045;27;46593;-62
2022/04/26 10:54:36;;;;;;;;;48.25;39.75;;;;;;;;5062278;27;46278;-63
2022/04/26 10:57:02;;;;;;;;;51.00;40.75;;;;;;;;5094034;27;45415;-62
2022/04/26 10:59:27;;;;;;;;;55.25;44.50;;;;;;;;5070787;28;45476;-63
2022/04/26 11:01:52;;;;;;;;;54.75;44.00;;;;;;;;5074127;27;48438;-62
2022/04/26 11:04:18;;;;;;;;;52.50;44.00;;;;;;;;5094557;27;45814;-62
2022/04/26 11:06:43;;;;;;;;;53.25;43.00;;;;;;;;5063580;27;45365;-62
2022/04/26 11:09:10;;;;;;;;;46.50;40.00;;;;;;;;5080867;27;45387;-62
2022/04/26 11:11:52;;;;;;;;;50.00;39.75;;;;;;;;5083707;27;45720;-62
2022/04/26 11:14:17;;;;;;;;;49.50;40.00;;;;;;;;5085087;27;45403;-62
2022/04/26 11:17:02;;;;;;;;;48.25;38.75;;;;;;;;5084815;27;45549;-62
2022/04/26 11:19:31;;;;;;;;;46.75;38.50;;;;;;;;5084603;27;45468;-61
2022/04/26 11:21:57;;;;;;;;;51.50;44.00;;;;;;;;5084122;27;46674;-63
2022/04/26 11:29:52;;;;;;;;;47.50;41.00;;;;;;;;5053695;28;45587;-62
2022/04/26 11:32:43;;;;;;;;;47.25;39.00;;;;;;;;5052845;28;46402;-62
2022/04/26 11:35:13;;;;;;;;;44.75;37.00;;;;;;;;5035785;28;45524;-62
2022/04/26 11:37:54;;;;;;;;;42.25;36.50;;;;;;;;5053552;28;45459;-62
2022/04/26 11:40:22;;;;;;;;;46.00;37.25;;;;;;;;5057160;28;45372;-61
2022/04/26 11:42:47;;;;;;;;;50.50;41.50;;;;;;;;5051950;28;45718;-62
2022/04/26 11:45:13;;;;;;;;;49.50;39.00;;;;;;;;5051761;28;46190;-62
2022/04/26 11:47:39;;;;;;;;;45.25;38.00;;;;;;;;5055133;28;45519;-62
2022/04/26 11:50:10;;;;;;;;;50.50;40.50;;;;;;;;5044510;28;45382;-62
2022/04/26 11:52:36;;;;;;;;;49.75;41.00;;;;;;;;5046233;28;46099;-62
2022/04/26 11:55:01;;;;;;;;;50.25;40.75;;;;;;;;5052942;28;45796;-62
2022/04/26 11:57:27;;;;;;;;;44.50;38.00;;;;;;;;5052724;28;45574;-62
2022/04/26 11:59:52;;;;;;;;;48.00;39.50;;;;;;;;5052611;28;45563;-63
2022/04/26 12:02:17;;;;;;;;;50.25;42.50;;;;;;;;5052325;28;46437;-62
2022/04/26 12:04:43;;;;;;;;;38.25;33.50;;;;;;;;5052101;28;45522;-62
2022/04/26 12:07:08;;;;;;;;;45.75;39.25;;;;;;;;5067240;27;45407;-62
2022/04/26 12:09:34;;;;;;;;;38.75;33.00;;;;;;;;5061361;27;45420;-63
2022/04/26 12:12:01;;;;;;;;;42.25;37.25;;;;;;;;5061542;27;47419;-63
2022/04/26 12:14:26;;;;;;;;;39.00;34.25;;;;;;;;5083649;27;45565;-62
2022/04/26 12:16:55;;;;;;;;;40.75;37.50;;;;;;;;5084074;27;45537;-62
2022/04/26 12:19:32;;;;;;;;;46.75;36.75;;;;;;;;5064779;28;45608;-63
2022/04/26 12:22:01;;;;;;;;;43.50;37.50;;;;;;;;5061836;28;46859;-62
2022/04/26 12:24:27;;;;;;;;;37.50;34.75;;;;;;;;5079041;27;45401;-63
2022/04/26 12:27:11;;;;;;;;;37.00;35.00;;;;;;;;5096365;27;45449;-63
2022/04/26 12:29:36;;;;;;;;;43.25;38.25;;;;;;;;5082238;27;45662;-62
2022/04/26 12:32:04;;;;;;;;;43.00;35.00;;;;;;;;5083651;27;47309;-62
2022/04/26 12:34:32;;;;;;;;;35.75;34.25;;;;;;;;5083447;27;45647;-63
2022/04/26 12:37:02;;;;;;;;;33.75;30.50;;;;;;;;5083236;27;45398;-62
2022/04/26 12:39:27;;;;;;;;;35.75;32.50;;;;;;;;5079464;27;45919;-61
2022/04/26 12:41:55;;;;;;;;;35.75;33.75;;;;;;;;5079817;27;46344;-62
2022/04/26 12:44:21;;;;;;;;;34.25;33.25;;;;;;;;5083569;27;45376;-61
2022/04/26 12:52:41;;;;;;;;;33.75;29.50;;;;;;;;5088684;27;45411;-63
2022/04/26 12:55:06;;;;;;;;;28.75;28.25;;;;;;;;5094052;27;45568;-63
2022/04/26 12:57:44;;;;;;;;;27.00;25.75;;;;;;;;5079943;27;45341;-62
2022/04/26 13:00:10;;;;;;;;;34.50;29.75;;;;;;;;5060202;27;45532;-62
2022/04/26 13:02:35;;;;;;;;;28.25;28.25;;;;;;;;5082311;27;46019;-61
2022/04/26 13:05:00;;;;;;;;;27.75;25.75;;;;;;;;5065106;28;46170;-62
2022/04/26 13:07:25;;;;;;;;;26.75;26.75;;;;;;;;5083546;27;45393;-62
2022/04/26 13:09:50;;;;;;;;;27.75;25.00;;;;;;;;5082185;27;45444;-62
2022/04/26 13:12:16;;;;;;;;;26.25;24.00;;;;;;;;5078547;27;46925;-62
2022/04/26 13:14:41;;;;;;;;;22.00;20.00;;;;;;;;5063135;28;45523;-62
2022/04/26 13:17:07;;;;;;;;;21.00;21.00;;;;;;;;5082978;27;45414;-62
2022/04/26 13:19:32;;;;;;;;;22.00;22.00;;;;;;;;5087482;27;45446;-62
2022/04/26 13:21:57;;;;;;;;;25.00;25.00;;;;;;;;5094234;27;46019;-62
2022/04/26 13:24:28;;;;;;;;;25.50;25.50;;;;;;;;5078183;27;45313;-63
2022/04/26 13:26:53;;;;;;;;;22.25;20.50;;;;;;;;5079837;27;45476;-62
2022/04/26 13:29:18;;;;;;;;;27.75;27.75;;;;;;;;5082908;27;45645;-62
2022/04/26 13:31:43;;;;;;;;;21.25;19.25;;;;;;;;5082934;27;47204;-62
2022/04/26 13:34:10;;;;;;;;;24.75;23.50;;;;;;;;5082540;27;45526;-62
2022/04/26 13:36:35;;;;;;;;;27.00;23.25;;;;;;;;5059902;27;45356;-63
2022/04/26 13:39:01;;;;;;;;;20.00;20.00;;;;;;;;5078572;27;45423;-62
2022/04/26 13:41:27;;;;;;;;;27.00;23.75;;;;;;;;5082406;27;45784;-62
2022/04/26 13:43:53;;;;;;;;;22.00;21.00;;;;;;;;5082743;27;45402;-63
2022/04/26 13:46:18;;;;;;;;;21.25;20.00;;;;;;;;5063559;28;45646;-62
2022/04/26 13:48:44;;;;;;;;;24.25;24.25;;;;;;;;5080394;27;45454;-63
2022/04/26 13:51:09;;;;;;;;;20.00;20.00;;;;;;;;5078172;27;46454;-62
2022/04/26 13:53:35;;;;;;;;;20.75;20.75;;;;;;;;5081348;27;45632;-62
2022/04/26 13:56:00;;;;;;;;;29.00;24.50;;;;;;;;5082928;27;45389;-62
2022/04/26 13:58:26;;;;;;;;;26.00;26.00;;;;;;;;5064273;28;45606;-63
2022/04/26 14:00:51;;;;;;;;;24.25;22.50;;;;;;;;5081063;27;46494;-62
2022/04/26 14:03:16;;;;;;;;;22.50;20.75;;;;;;;;5077998;27;45338;-62
2022/04/26 14:05:41;;;;;;;;;21.25;21.25;;;;;;;;5061647;28;45388;-62
2022/04/26 14:08:07;;;;;;;;;25.00;25.00;;;;;;;;5082445;27;45462;-62
2022/04/26 14:10:32;;;;;;;;;20.50;19.25;;;;;;;;5082192;27;46361;-63
2022/04/26 14:12:59;;;;;;;;;24.50;24.50;;;;;;;;5083826;27;45515;-62
2022/04/26 14:23:36;;;;;;;;;23.75;22.00;;;;;;;;5094237;27;45550;-62
2022/04/26 14:26:03;;;;;;;;;25.50;25.50;;;;;;;;5085417;27;45412;-61
2022/04/26 14:28:28;;;;;;;;;17.50;17.50;;;;;;;;5082527;27;45404;-62
2022/04/26 14:30:53;;;;;;;;;26.75;23.25;;;;;;;;5081109;27;46369;-62
2022/04/26 14:33:19;;;;;;;;;19.50;16.75;;;;;;;;5077525;27;45385;-62
2022/04/26 14:35:45;;;;;;;;;19.00;19.00;;;;;;;;5079511;27;45479;-62
2022/04/26 14:38:10;;;;;;;;;19.75;18.50;;;;;;;;5091902;27;45509;-62
2022/04/26 14:40:35;;;;;;;;;24.75;23.25;;;;;;;;5069487;28;47776;-62
2022/04/26 14:43:04;;;;;;;;;18.75;17.75;;;;;;;;5073530;27;45450;-62
2022/04/26 14:45:32;;;;;;;;;27.25;26.00;;;;;;;;5093966;27;45467;-62
2022/04/26 14:47:58;;;;;;;;;19.75;19.75;;;;;;;;5094508;27;45439;-62
2022/04/26 14:50:23;;;;;;;;;19.25;17.50;;;;;;;;5081889;27;46272;-62
2022/04/26 14:52:48;;;;;;;;;21.00;21.00;;;;;;;;5082065;27;45335;-62
2022/04/26 14:55:13;;;;;;;;;19.25;16.75;;;;;;;;5082430;27;45387;-62
2022/04/26 14:57:39;;;;;;;;;18.00;18.00;;;;;;;;5060632;27;45619;-62
2022/04/26 15:00:05;;;;;;;;;19.00;18.75;;;;;;;;5076931;27;46345;-62
2022/04/26 15:02:38;;;;;;;;;19.00;17.75;;;;;;;;5089842;27;45407;-62
2022/04/26 15:05:03;;;;;;;;;21.25;19.50;;;;;;;;5080418;27;45458;-62
2022/04/26 15:09:42;;;;;;;;;19.00;19.00;;;;;;;;5057756;28;46108;-62
2022/04/26 15:10:13;;;;;;;;;18.75;17.25;;;;;;;;5075968;27;45483;-62
2022/04/26 15:18:17;;;;;;;;;15.50;14.50;;;;;;;;5015940;28;45590;-62
2022/04/26 15:20:49;;;;;;;;;13.00;12.25;;;;;;;;5020336;28;46328;-63
2022/04/26 15:23:15;;;;;;;;;13.75;13.00;;;;;;;;5022340;28;45496;-63
2022/04/26 15:25:40;;;;;;;;;12.25;12.25;;;;;;;;5022445;28;45411;-63
2022/04/26 15:28:05;;;;;;;;;16.50;15.75;;;;;;;;5023198;28;45366;-62
2022/04/26 15:30:31;;;;;;;;;12.50;12.50;;;;;;;;5019708;28;45891;-63
2022/04/26 15:32:56;;;;;;;;;10.50;10.50;;;;;;;;5018904;28;45897;-62
2022/04/26 15:35:21;;;;;;;;;17.00;15.75;;;;;;;;5022477;28;45398;-62
2022/04/26 15:37:46;;;;;;;;;16.00;13.00;;;;;;;;5022327;28;45593;-62
2022/04/26 15:40:11;;;;;;;;;16.50;15.00;;;;;;;;5022150;28;46409;-62
2022/04/26 15:42:37;;;;;;;;;15.50;15.50;;;;;;;;5018875;28;45581;-62
2022/04/26 15:45:02;;;;;;;;;12.00;12.00;;;;;;;;5033760;28;45498;-62
2022/04/26 15:47:29;;;;;;;;;12.00;12.00;;;;;;;;5029168;28;45464;-63
2022/04/26 15:49:54;;;;;;;;;10.50;9.50;;;;;;;;5025753;28;46528;-62
2022/04/26 15:52:20;;;;;;;;;14.50;13.50;;;;;;;;5023607;28;46344;-61
2022/04/26 15:54:45;;;;;;;;;14.75;13.00;;;;;;;;5054598;28;45444;-63
2022/04/26 15:57:11;;;;;;;;;16.25;15.50;;;;;;;;5093432;27;45518;-61
2022/04/26 15:59:37;;;;;;;;;14.75;14.00;;;;;;;;5078176;27;46429;-62
2022/04/26 16:02:04;;;;;;;;;20.00;15.25;;;;;;;;5078849;27;45624;-62
2022/04/26 16:04:29;;;;;;;;;14.25;14.00;;;;;;;;5079363;27;45495;-63
2022/04/26 16:06:54;;;;;;;;;15.50;14.50;;;;;;;;5060654;28;45401;-63
2022/04/26 16:20:30;;;;;;;;;16.25;16.25;;;;;;;;5081229;27;45484;-63
2022/04/26 16:22:56;;;;;;;;;12.50;12.50;;;;;;;;5078399;27;45366;-62
2022/04/26 16:25:22;;;;;;;;;13.50;13.50;;;;;;;;5060091;28;45565;-61
2022/04/26 16:27:48;;;;;;;;;14.00;13.50;;;;;;;;5077808;27;45547;-62
2022/04/26 16:30:13;;;;;;;;;11.75;11.75;;;;;;;;5076063;27;46512;-62
2022/04/26 16:32:39;;;;;;;;;14.25;13.25;;;;;;;;5078034;27;45411;-61
2022/04/26 16:35:08;;;;;;;;;17.25;16.25;;;;;;;;5090940;27;45407;-60
2022/04/26 16:37:33;;;;;;;;;10.50;10.25;;;;;;;;5086926;27;45489;-61
2022/04/26 16:39:58;;;;;;;;;15.50;13.50;;;;;;;;5059683;28;48823;-65
2022/04/26 16:42:24;;;;;;;;;11.75;11.75;;;;;;;;5075388;28;45385;-62
2022/04/26 16:44:49;;;;;;;;;14.00;14.00;;;;;;;;5088129;27;45357;-61
2022/04/26 16:47:14;;;;;;;;;13.50;12.50;;;;;;;;5079546;27;45495;-62
2022/04/26 16:49:40;;;;;;;;;15.00;15.00;;;;;;;;5078235;27;45411;-63
2022/04/26 16:52:05;;;;;;;;;16.50;14.50;;;;;;;;5059681;28;45364;-62
2022/04/26 16:54:31;;;;;;;;;18.25;15.75;;;;;;;;5078309;27;45523;-61
2022/04/26 16:56:56;;;;;;;;;14.50;14.50;;;;;;;;5061674;28;45598;-62
2022/04/26 16:59:23;;;;;;;;;18.00;17.75;;;;;;;;5077555;27;46351;-62
2022/04/26 17:01:48;;;;;;;;;12.75;12.75;;;;;;;;5077557;27;45501;-62
2022/04/26 17:04:14;;;;;;;;;16.00;16.00;;;;;;;;5077978;27;45381;-63
2022/04/26 17:06:39;;;;;;;;;17.00;17.00;;;;;;;;5078077;27;49632;-61
2022/04/26 17:09:04;;;;;;;;;20.50;18.50;;;;;;;;5073841;27;46707;-64
2022/04/26 17:11:42;;;;;;;;;15.75;13.50;;;;;;;;5074951;27;45462;-58
2022/04/26 17:14:07;;;;;;;;;17.25;15.25;;;;;;;;5089141;27;45540;-65
2022/04/26 17:16:32;;;;;;;;;14.75;14.75;;;;;;;;5084473;27;45519;-63
2022/04/26 17:18:58;;;;;;;;;17.25;17.25;;;;;;;;5075713;27;46422;-63
2022/04/26 17:21:24;;;;;;;;;16.25;15.00;;;;;;;;5076038;27;45565;-62
2022/04/26 17:23:52;;;;;;;;;21.25;19.25;;;;;;;;5073536;27;45479;-64
2022/04/26 17:26:18;;;;;;;;;16.75;16.25;;;;;;;;5067453;27;45389;-63
2022/04/26 17:28:43;;;;;;;;;17.75;16.75;;;;;;;;5066318;28;47797;-62
2022/04/26 17:31:09;;;;;;;;;14.25;14.25;;;;;;;;5079482;27;45388;-66
2022/04/26 17:33:35;;;;;;;;;17.00;17.00;;;;;;;;5076151;27;45388;-62
2022/04/26 17:36:01;;;;;;;;;15.25;15.00;;;;;;;;5059227;27;45489;-63
2022/04/26 17:38:26;;;;;;;;;20.00;18.50;;;;;;;;5066626;28;48565;-64
2022/04/26 17:40:52;;;;;;;;;18.25;17.25;;;;;;;;5069233;27;45343;-64
2022/04/26 17:43:17;;;;;;;;;18.75;17.25;;;;;;;;5085400;27;47164;-62
2022/04/26 17:45:46;;;;;;;;;12.25;12.25;;;;;;;;5076174;27;45538;-63
2022/04/26 17:48:11;;;;;;;;;18.25;16.50;;;;;;;;5073803;27;45845;-63
2022/04/26 17:50:36;;;;;;;;;17.50;14.75;;;;;;;;5066738;28;45806;-63
2022/04/26 17:58:29;;;;;;;;;12.25;12.25;;;;;;;;5075469;27;45698;-61
2022/04/26 18:00:54;;;;;;;;;15.75;14.00;;;;;;;;5075556;27;45310;-62
2022/04/26 18:03:22;;;;;;;;;16.00;16.00;;;;;;;;5073805;27;45364;-61
2022/04/26 18:05:47;;;;;;;;;16.00;15.00;;;;;;;;5074427;27;45622;-61
2022/04/26 18:08:12;;;;;;;;;18.75;18.75;;;;;;;;5075225;27;45559;-61
2022/04/26 18:10:41;;;;;;;;;17.50;17.50;;;;;;;;5075420;27;45439;-61
2022/04/26 18:13:06;;;;;;;;;18.75;18.25;;;;;;;;5075789;27;45680;-61
2022/04/26 18:15:31;;;;;;;;;19.25;16.00;;;;;;;;5075512;27;45353;-60
2022/04/26 18:17:56;;;;;;;;;13.75;13.75;;;;;;;;5074444;28;45724;-59
2022/04/26 18:20:22;;;;;;;;;20.75;18.50;;;;;;;;5076356;27;45526;-62
2022/04/26 18:22:47;;;;;;;;;22.75;19.50;;;;;;;;5057231;28;45463;-63
2022/04/26 18:25:12;;;;;;;;;17.75;17.75;;;;;;;;5075196;27;45489;-64
2022/04/26 18:27:39;;;;;;;;;17.00;17.00;;;;;;;;5074949;27;46322;-61
2022/04/26 18:30:05;;;;;;;;;18.50;17.75;;;;;;;;5072550;27;45514;-61
2022/04/26 18:32:31;;;;;;;;;18.75;18.75;;;;;;;;5091691;27;45598;-62
2022/04/26 18:34:57;;;;;;;;;17.25;16.50;;;;;;;;5080365;27;45503;-62
2022/04/26 18:37:22;;;;;;;;;20.75;19.50;;;;;;;;5055978;28;48441;-61
2022/04/26 18:39:47;;;;;;;;;16.75;15.75;;;;;;;;5075235;27;45538;-67
2022/04/26 18:42:12;;;;;;;;;22.50;19.00;;;;;;;;5072675;27;45471;-68
2022/04/26 18:44:38;;;;;;;;;20.50;20.50;;;;;;;;5066909;28;45278;-64